createdAt,value
2023-03-26T00:00:54.514Z,99746.86
2023-03-26T00:03:59.107Z,99747.94
2023-03-26T00:06:56.028Z,99742.93
2023-03-26T00:10:07.698Z,99743.14
2023-03-26T00:13:18.964Z,99740.16
2023-03-26T00:16:31.014Z,99739.94
2023-03-26T00:19:43.256Z,99743.50
2023-03-26T00:22:55.429Z,99751.65
2023-03-26T00:26:10.974Z,99754.40
2023-03-26T00:29:23.117Z,99752.45
2023-03-26T00:32:34.282Z,99757.23
2023-03-26T00:35:47.316Z,99757.23
2023-03-26T00:38:58.518Z,99755.92
2023-03-26T00:42:07.433Z,99753.69
2023-03-26T00:45:21.514Z,99752.73
2023-03-26T00:48:43.883Z,99755.42
2023-03-26T00:51:56.903Z,99754.09
2023-03-26T00:55:08.579Z,99751.80
2023-03-26T00:58:13.485Z,99751.45
2023-03-26T01:01:19.118Z,99752.80
2023-03-26T01:04:32.172Z,99751.04
2023-03-26T01:07:44.911Z,99753.65
2023-03-26T01:10:43.849Z,99754.00
2023-03-26T01:13:56.304Z,99755.09
2023-03-26T01:17:09.323Z,99753.56
2023-03-26T01:20:22.332Z,99755.77
2023-03-26T01:23:26.549Z,99759.55
2023-03-26T01:26:46.919Z,99764.31
2023-03-26T01:29:54.825Z,99763.56
2023-03-26T01:33:14.106Z,99761.25
2023-03-26T01:36:30.661Z,99765.29
2023-03-26T01:39:49.349Z,99767.80
2023-03-26T01:42:49.359Z,99770.29
2023-03-26T01:46:02.172Z,99773.28
2023-03-26T01:49:13.520Z,99777.45
2023-03-26T01:52:25.456Z,99778.84
2023-03-26T01:55:30.236Z,99778.45
2023-03-26T01:58:38.311Z,99782.64
2023-03-26T02:02:00.085Z,99781.95
2023-03-26T02:05:02.025Z,99783.72
2023-03-26T02:08:01.912Z,99783.74
2023-03-26T02:11:05.267Z,99782.10
2023-03-26T02:14:15.416Z,99783.23
2023-03-26T02:17:16.935Z,99787.08
2023-03-26T02:20:25.950Z,99785.88
2023-03-26T02:23:37.493Z,99785.31
2023-03-26T02:26:42.072Z,99785.64
2023-03-26T02:29:39.987Z,99790.96
2023-03-26T02:32:52.516Z,99794.87
2023-03-26T02:35:53.719Z,99799.73
2023-03-26T02:39:17.226Z,99800.38
2023-03-26T02:42:28.038Z,99803.35
2023-03-26T02:45:24.492Z,99805.83
2023-03-26T02:48:55.860Z,99805.33
2023-03-26T02:52:00.050Z,99811.51
2023-03-26T02:55:13.477Z,99819.40
2023-03-26T02:58:25.553Z,99824.31
2023-03-26T03:01:36.369Z,99828.64
2023-03-26T03:04:47.375Z,99833.98
2023-03-26T03:07:58.656Z,99840.66
2023-03-26T03:11:11.235Z,99843.96
2023-03-26T03:14:12.909Z,99847.80
2023-03-26T03:17:23.983Z,99852.95
2023-03-26T03:20:36.181Z,99854.16
2023-03-26T03:23:47.644Z,99856.08
2023-03-26T03:27:00.333Z,99857.38
2023-03-26T03:30:12.799Z,99857.95
2023-03-26T03:33:29.777Z,99857.50
2023-03-26T03:36:41.091Z,99861.00
2023-03-26T03:39:51.843Z,99861.93
2023-03-26T03:43:03.212Z,99864.04
2023-03-26T03:46:14.461Z,99868.17
2023-03-26T03:49:23.835Z,99873.30
2023-03-26T03:52:35.221Z,99873.06
2023-03-26T03:55:53.140Z,99875.90
2023-03-26T03:59:04.796Z,99875.40
2023-03-26T04:02:26.625Z,99876.89
2023-03-26T04:05:31.164Z,99883.05
2023-03-26T04:08:42.127Z,99892.26
2023-03-26T04:11:52.879Z,99895.73
2023-03-26T04:15:04.416Z,99897.87
2023-03-26T04:18:15.194Z,99899.84
2023-03-26T04:21:26.568Z,99902.27
2023-03-26T04:24:38.495Z,99908.82
2023-03-26T04:27:48.243Z,99916.39
2023-03-26T04:31:05.835Z,99922.43
2023-03-26T04:34:24.730Z,99928.83
2023-03-26T04:37:44.445Z,99937.58
2023-03-26T04:40:42.518Z,99944.49
2023-03-26T04:43:56.924Z,99953.57
2023-03-26T04:47:10.440Z,99958.27
2023-03-26T04:50:21.263Z,99963.73
2023-03-26T04:53:32.476Z,99973.06
2023-03-26T04:56:52.630Z,99982.63
2023-03-26T05:00:18.640Z,99990.14
2023-03-26T05:03:39.417Z,99994.96
2023-03-26T05:06:46.482Z,100000.81
2023-03-26T05:09:57.892Z,100005.02
2023-03-26T05:13:18.094Z,100009.16
2023-03-26T05:16:31.968Z,100018.61
2023-03-26T05:19:42.794Z,100032.35
2023-03-26T05:22:54.373Z,100040.33
2023-03-26T05:26:10.450Z,100047.27
2023-03-26T05:29:22.910Z,100051.86
2023-03-26T05:32:34.013Z,100060.27
2023-03-26T05:35:59.603Z,100065.98
2023-03-26T05:39:06.244Z,100077.07
2023-03-26T05:42:32.974Z,100085.55
2023-03-26T05:45:44.187Z,100090.84
2023-03-26T05:49:01.186Z,100102.41
2023-03-26T05:52:15.347Z,100109.13
2023-03-26T05:55:35.383Z,100114.69
2023-03-26T05:58:45.179Z,100124.04
2023-03-26T06:01:56.586Z,100133.30
2023-03-26T06:05:12.548Z,100139.66
2023-03-26T06:08:29.918Z,100151.29
2023-03-26T06:11:41.087Z,100157.12
2023-03-26T06:14:43.102Z,100166.17
2023-03-26T06:17:56.930Z,100169.92
2023-03-26T06:21:26.134Z,100179.85
2023-03-26T06:24:37.163Z,100189.28
2023-03-26T06:27:46.193Z,100192.58
2023-03-26T06:31:02.794Z,100201.97
2023-03-26T06:34:20.245Z,100213.98
2023-03-26T06:37:31.390Z,100223.23
2023-03-26T06:40:31.415Z,100230.70
2023-03-26T06:43:44.827Z,100241.98
2023-03-26T06:46:53.899Z,100252.10
2023-03-26T06:50:03.560Z,100256.48
2023-03-26T06:53:23.240Z,100263.50
2023-03-26T06:56:38.430Z,100264.08
2023-03-26T06:59:52.102Z,100271.54
2023-03-26T07:03:01.430Z,100281.95
2023-03-26T07:06:11.099Z,100289.19
2023-03-26T07:09:20.243Z,100298.91
2023-03-26T07:12:29.241Z,100306.45
2023-03-26T07:15:49.955Z,100314.36
2023-03-26T07:19:07.199Z,100325.55
2023-03-26T07:22:22.487Z,100334.48
2023-03-26T07:25:50.195Z,100342.02
2023-03-26T07:29:07.868Z,100352.42
2023-03-26T07:32:28.700Z,100362.89
2023-03-26T07:35:55.154Z,100371.39
2023-03-26T07:39:15.207Z,100380.73
2023-03-26T07:42:35.701Z,100392.27
2023-03-26T07:45:46.491Z,100400.30
2023-03-26T07:49:04.785Z,100412.13
2023-03-26T07:52:16.527Z,100417.02
2023-03-26T07:55:38.652Z,100424.34
2023-03-26T07:58:57.644Z,100430.81
2023-03-26T08:02:42.497Z,100439.87
2023-03-26T08:06:15.963Z,100448.77
2023-03-26T08:09:21.225Z,100453.40
2023-03-26T08:12:48.641Z,100463.67
2023-03-26T08:15:57.146Z,100473.19
2023-03-26T08:19:17.465Z,100481.60
2023-03-26T08:22:37.355Z,100488.23
2023-03-26T08:26:27.458Z,100494.69
2023-03-26T08:29:51.014Z,100506.67
2023-03-26T08:33:04.861Z,100513.72
2023-03-26T08:36:01.414Z,100520.55
2023-03-26T08:39:06.375Z,100528.48
2023-03-26T08:42:34.335Z,100535.96
2023-03-26T08:46:08.003Z,100549.52
2023-03-26T08:49:38.280Z,100565.30
2023-03-26T08:53:08.334Z,100568.52
2023-03-26T08:56:14.624Z,100579.35
2023-03-26T08:59:27.717Z,100588.42
2023-03-26T09:02:54.482Z,100594.27
2023-03-26T09:06:09.618Z,100603.35
2023-03-26T09:09:34.765Z,100607.24
2023-03-26T09:12:59.911Z,100608.36
2023-03-26T09:16:28.196Z,100618.08
2023-03-26T09:19:53.465Z,100627.80
2023-03-26T09:23:15.120Z,100637.92
2023-03-26T09:26:31.471Z,100649.30
2023-03-26T09:29:58.475Z,100663.55
2023-03-26T09:33:28.260Z,100669.59
2023-03-26T09:36:53.753Z,100684.88
2023-03-26T09:39:53.581Z,100695.61
2023-03-26T09:43:00.798Z,100706.34
2023-03-26T09:46:09.822Z,100712.95
2023-03-26T09:49:24.659Z,100723.11
2023-03-26T09:52:46.417Z,100734.84
2023-03-26T09:56:04.846Z,100741.23
2023-03-26T09:59:11.201Z,100746.79
2023-03-26T10:02:46.298Z,100761.35
2023-03-26T10:06:07.018Z,100771.14
2023-03-26T10:09:20.764Z,100780.95
2023-03-26T10:12:29.741Z,100790.35
2023-03-26T10:15:38.578Z,100799.53
2023-03-26T10:18:54.596Z,100805.00
2023-03-26T10:22:11.703Z,100814.42
2023-03-26T10:25:28.692Z,100821.77
2023-03-26T10:28:35.785Z,100829.07
2023-03-26T10:31:48.203Z,100835.23
2023-03-26T10:34:58.287Z,100846.14
2023-03-26T10:38:03.780Z,100853.97
2023-03-26T10:41:18.110Z,100859.98
2023-03-26T10:44:43.720Z,100871.96
2023-03-26T10:48:14.094Z,100878.99
2023-03-26T10:51:40.863Z,100883.73
2023-03-26T10:54:55.082Z,100893.58
2023-03-26T10:58:12.306Z,100904.19
2023-03-26T11:01:30.084Z,100912.50
2023-03-26T11:04:45.394Z,100920.06
2023-03-26T11:08:02.237Z,100933.35
2023-03-26T11:11:19.469Z,100945.38
2023-03-26T11:14:34.881Z,100957.15
2023-03-26T11:17:51.801Z,100963.41
2023-03-26T11:21:19.854Z,100970.30
2023-03-26T11:24:36.250Z,100968.93
2023-03-26T11:27:55.228Z,100979.13
2023-03-26T11:31:03.597Z,100980.48
2023-03-26T11:34:17.414Z,100986.80
2023-03-26T11:37:31.341Z,100994.61
2023-03-26T11:40:36.215Z,100998.64
2023-03-26T11:43:50.109Z,100997.98
2023-03-26T11:46:59.050Z,101007.27
2023-03-26T11:50:17.068Z,101015.91
2023-03-26T11:53:27.687Z,101027.59
2023-03-26T11:57:04.819Z,101035.83
2023-03-26T12:00:18.515Z,101045.30
2023-03-26T12:03:30.514Z,101051.98
2023-03-26T12:06:51.488Z,101063.64
2023-03-26T12:10:18.169Z,101068.61
2023-03-26T12:13:34.876Z,101078.13
2023-03-26T12:16:59.242Z,101089.98
2023-03-26T12:26:46.774Z,101126.59
2023-03-26T12:29:46.586Z,101130.32
2023-03-26T12:33:00.300Z,101134.38
2023-03-26T12:36:19.532Z,101133.23
2023-03-26T12:40:10.698Z,101134.02
2023-03-26T12:44:55.725Z,101143.09
2023-03-26T12:47:55.272Z,101150.28
2023-03-26T12:49:49.494Z,101158.48
2023-03-26T12:53:00.442Z,101165.00
2023-03-26T12:56:15.717Z,101178.06
2023-03-26T12:59:42.724Z,101181.60
2023-03-26T13:03:00.326Z,101187.04
2023-03-26T13:06:06.930Z,101193.25
2023-03-26T13:09:24.027Z,101192.70
2023-03-26T13:12:21.473Z,101200.15
2023-03-26T13:15:24.969Z,101207.52
2023-03-26T13:18:22.065Z,101210.37
2023-03-26T13:21:19.634Z,101215.79
2023-03-26T13:24:24.825Z,101214.99
2023-03-26T13:27:20.054Z,101222.26
2023-03-26T13:30:27.340Z,101227.04
2023-03-26T13:33:33.896Z,101230.02
2023-03-26T13:36:32.096Z,101232.36
2023-03-26T13:39:36.247Z,101234.24
2023-03-26T13:42:37.880Z,101235.07
2023-03-26T13:45:35.235Z,101238.95
2023-03-26T13:48:30.344Z,101246.52
2023-03-26T13:51:36.382Z,101247.67
2023-03-26T13:54:29.882Z,101256.39
2023-03-26T13:57:24.949Z,101261.86
2023-03-26T14:00:18.540Z,101267.75
2023-03-26T14:03:17.754Z,101270.15
2023-03-26T14:06:13.443Z,101270.67
2023-03-26T14:09:05.204Z,101272.08
2023-03-26T14:12:27.050Z,101278.41
2023-03-26T14:15:21.138Z,101277.84
2023-03-26T14:18:17.196Z,101274.79
2023-03-26T14:21:25.079Z,101267.96
2023-03-26T14:24:34.559Z,101267.80
2023-03-26T14:27:35.222Z,101264.46
2023-03-26T14:30:38.524Z,101272.86
2023-03-26T14:33:38.648Z,101280.34
2023-03-26T14:36:41.976Z,101284.97
2023-03-26T14:39:51.489Z,101288.02
2023-03-26T14:42:43.646Z,101293.80
2023-03-26T14:45:44.654Z,101308.86
2023-03-26T14:48:51.426Z,101320.85
2023-03-26T14:51:51.505Z,101331.70
2023-03-26T14:54:45.888Z,101339.35
2023-03-26T14:57:49.718Z,101335.13
2023-03-26T15:01:04.351Z,101330.81
2023-03-26T15:04:11.752Z,101343.63
2023-03-26T15:07:15.884Z,101352.36
2023-03-26T15:10:27.402Z,101362.55
2023-03-26T15:13:31.096Z,101371.67
2023-03-26T15:16:41.656Z,101372.21
2023-03-26T15:19:56.687Z,101375.83
2023-03-26T15:23:17.553Z,101374.87
2023-03-26T15:26:42.583Z,101385.70
2023-03-26T15:29:49.452Z,101400.02
2023-03-26T15:32:57.589Z,101406.89
2023-03-26T15:36:03.714Z,101405.52
2023-03-26T15:39:19.704Z,101406.67
2023-03-26T15:42:27.342Z,101405.91
2023-03-26T15:45:35.482Z,101409.92
2023-03-26T15:48:47.615Z,101410.00
2023-03-26T15:51:49.431Z,101417.83
2023-03-26T15:54:59.575Z,101422.70
2023-03-26T15:58:13.833Z,101416.42
2023-03-26T16:01:10.903Z,101419.02
2023-03-26T16:04:23.153Z,101422.23
2023-03-26T16:07:51.119Z,101424.46
2023-03-26T16:10:53.834Z,101432.11
2023-03-26T16:14:12.653Z,101445.06
2023-03-26T16:17:13.150Z,101452.89
2023-03-26T16:20:31.332Z,101466.30
2023-03-26T16:23:53.929Z,101474.76
2023-03-26T16:26:56.323Z,101479.57
2023-03-26T16:30:09.755Z,101481.38
2023-03-26T16:33:10.537Z,101487.05
2023-03-26T16:36:26.190Z,101491.83
2023-03-26T16:39:39.113Z,101504.84
2023-03-26T16:42:41.037Z,101510.27
2023-03-26T16:45:50.513Z,101517.27
2023-03-26T16:49:05.224Z,101525.83
2023-03-26T16:52:26.855Z,101533.32
2023-03-26T16:55:42.914Z,101542.75
2023-03-26T16:58:58.942Z,101550.68
2023-03-26T17:01:57.466Z,101552.44
2023-03-26T17:05:34.358Z,101557.39
2023-03-26T17:08:35.527Z,101563.91
2023-03-26T17:11:48.906Z,101577.31
2023-03-26T17:14:49.455Z,101585.86
2023-03-26T17:17:52.937Z,101595.13
2023-03-26T17:21:02.413Z,101597.39
2023-03-26T17:24:15.168Z,101596.94
2023-03-26T17:27:34.308Z,101611.15
2023-03-26T17:30:57.182Z,101623.98
2023-03-26T17:33:55.819Z,101623.74
2023-03-26T17:37:00.135Z,101625.21
2023-03-26T17:40:36.020Z,101630.31
2023-03-26T17:43:48.544Z,101639.81
2023-03-26T17:47:01.882Z,101641.67
2023-03-26T17:50:16.288Z,101646.39
2023-03-26T17:53:22.509Z,101651.76
2023-03-26T17:56:29.013Z,101651.15
2023-03-26T17:59:42.212Z,101649.40
2023-03-26T18:02:57.526Z,101661.81
2023-03-26T18:06:09.788Z,101675.43
2023-03-26T18:09:34.654Z,101678.80
2023-03-26T18:12:57.926Z,101678.52
2023-03-26T18:16:13.998Z,101683.41
2023-03-26T18:19:19.618Z,101682.52
2023-03-26T18:22:25.054Z,101685.41
2023-03-26T18:25:28.583Z,101684.89
2023-03-26T18:28:42.815Z,101688.48
2023-03-26T18:31:48.178Z,101690.73
2023-03-26T18:35:00.948Z,101692.82
2023-03-26T18:38:14.564Z,101697.71
2023-03-26T18:41:09.860Z,101703.85
2023-03-26T18:44:20.209Z,101705.94
2023-03-26T18:47:30.618Z,101714.38
2023-03-26T18:50:43.132Z,101718.65
2023-03-26T18:53:50.547Z,101722.79
2023-03-26T18:57:14.920Z,101730.64
2023-03-26T19:00:30.451Z,101732.26
2023-03-26T19:03:36.913Z,101735.52
2023-03-26T19:06:43.835Z,101739.29
2023-03-26T19:09:58.186Z,101738.73
2023-03-26T19:13:22.144Z,101742.46
2023-03-26T19:16:30.012Z,101747.16
2023-03-26T19:19:43.468Z,101752.15
2023-03-26T19:23:44.433Z,101756.54
2023-03-26T19:26:29.802Z,101769.25
2023-03-26T19:29:52.956Z,101776.84
2023-03-26T19:33:13.505Z,101786.11
2023-03-26T19:36:26.528Z,101785.91
2023-03-26T19:39:40.567Z,101790.22
2023-03-26T19:42:56.391Z,101792.58
2023-03-26T19:46:08.708Z,101796.55
2023-03-26T19:49:28.563Z,101803.32
2023-03-26T19:52:34.281Z,101812.50
2023-03-26T19:55:53.632Z,101818.61
2023-03-26T19:59:05.329Z,101819.43
2023-03-26T20:02:16.206Z,101825.17
2023-03-26T20:05:28.979Z,101823.94
2023-03-26T20:08:41.131Z,101820.71
2023-03-26T20:11:52.723Z,101821.70
2023-03-26T20:15:03.416Z,101829.02
2023-03-26T20:18:14.159Z,101829.20
2023-03-26T20:21:18.545Z,101832.41
2023-03-26T20:24:21.607Z,101841.48
2023-03-26T20:27:31.463Z,101847.66
2023-03-26T20:30:42.402Z,101851.45
2023-03-26T20:33:54.314Z,101853.82
2023-03-26T20:37:05.876Z,101858.20
2023-03-26T20:40:15.818Z,101859.36
2023-03-26T20:43:30.295Z,101857.91
2023-03-26T20:46:33.515Z,101857.92
2023-03-26T20:49:46.255Z,101860.77
2023-03-26T20:52:59.974Z,101866.36
2023-03-26T20:56:15.578Z,101863.26
2023-03-26T20:59:29.807Z,101862.59
2023-03-26T21:02:36.309Z,101869.77
2023-03-26T21:05:52.537Z,101872.83
2023-03-26T21:09:04.306Z,101879.29
2023-03-26T21:12:09.829Z,101884.38
2023-03-26T21:15:24.404Z,101893.40
2023-03-26T21:18:35.604Z,101903.42
2023-03-26T21:22:03.171Z,101905.58
2023-03-26T21:25:13.304Z,101911.88
2023-03-26T21:28:42.560Z,101922.61
2023-03-26T21:31:46.999Z,101930.33
2023-03-26T21:34:55.746Z,101933.72
2023-03-26T21:38:13.258Z,101937.23
2023-03-26T21:41:36.385Z,101946.20
2023-03-26T21:44:47.815Z,101949.71
2023-03-26T21:47:58.446Z,101952.73
2023-03-26T21:51:17.734Z,101950.80
2023-03-26T21:54:42.048Z,101949.04
2023-03-26T21:57:51.197Z,101949.83
2023-03-26T22:04:34.066Z,101956.73
2023-03-26T22:07:51.964Z,101958.96
2023-03-26T22:11:08.493Z,101957.83
2023-03-26T22:14:23.647Z,101959.20
2023-03-26T22:17:35.947Z,101967.16
2023-03-26T22:20:47.347Z,101972.02
2023-03-26T22:23:58.299Z,101973.63
2023-03-26T22:27:10.159Z,101977.74
2023-03-26T22:30:21.980Z,101982.63
2023-03-26T22:33:33.243Z,101987.39
2023-03-26T22:36:44.318Z,101995.34
2023-03-26T22:39:55.534Z,101998.33
2023-03-26T22:43:07.823Z,102003.64
2023-03-26T22:46:19.167Z,102003.55
2023-03-26T22:49:31.561Z,102009.12
2023-03-26T22:52:51.124Z,102011.14
2023-03-26T22:56:02.290Z,102019.58
2023-03-26T22:59:13.582Z,102026.16
2023-03-26T23:02:24.310Z,102028.56
2023-03-26T23:05:35.206Z,102032.95
2023-03-26T23:08:46.350Z,102039.18
2023-03-26T23:11:51.927Z,102043.23
2023-03-26T23:14:53.777Z,102040.95
2023-03-26T23:18:04.917Z,102044.78
2023-03-26T23:21:20.031Z,102044.91
2023-03-26T23:24:31.303Z,102049.98
2023-03-26T23:31:14.633Z,102054.38
2023-03-26T23:34:25.379Z,102060.08
2023-03-26T23:37:36.253Z,102061.05
2023-03-26T23:40:57.300Z,102061.39
2023-03-26T23:44:17.394Z,102064.66
2023-03-26T23:47:34.472Z,102064.64
2023-03-26T23:50:48.353Z,102065.09
2023-03-26T23:53:59.928Z,102070.27
2023-03-26T23:57:11.480Z,102071.88
